sensor_id;sensor_type;location;lat;lon;timestamp;temperature;humidity
74178;DHT22;62540;48.456;-4.456;2023-09-30T00:01:22;16.97;69.60
74178;DHT22;62540;48.456;-4.456;2023-09-30T00:03:47;16.93;69.71
74178;DHT22;62540;48.456;-4.456;2023-09-30T00:06:13;16.94;69.69
74178;DHT22;62540;48.456;-4.456;2023-09-30T00:08:38;16.96;69.62
74178;DHT22;62540;48.456;-4.456;2023-09-30T00:11:05;16.91;69.58
74178;DHT22;62540;48.456;-4.456;2023-09-30T00:13:30;16.93;69.56
74178;DHT22;62540;48.456;-4.456;2023-09-30T00:15:57;16.93;69.45
74178;DHT22;62540;48.456;-4.456;2023-09-30T00:18:22;16.87;69.45
74178;DHT22;62540;48.456;-4.456;2023-09-30T00:20:48;16.84;69.49
74178;DHT22;62540;48.456;-4.456;2023-09-30T00:23:13;16.79;69.53
74178;DHT22;62540;48.456;-4.456;2023-09-30T00:25:39;16.77;69.57
74178;DHT22;62540;48.456;-4.456;2023-09-30T00:28:04;16.79;69.49
74178;DHT22;62540;48.456;-4.456;2023-09-30T00:30:30;16.75;69.45
74178;DHT22;62540;48.456;-4.456;2023-09-30T00:32:55;16.72;69.56
74178;DHT22;62540;48.456;-4.456;2023-09-30T00:35:21;16.70;69.61
74178;DHT22;62540;48.456;-4.456;2023-09-30T00:37:46;16.63;69.59
74178;DHT22;62540;48.456;-4.456;2023-09-30T00:40:11;16.62;69.65
74178;DHT22;62540;48.456;-4.456;2023-09-30T00:42:40;16.59;69.64
74178;DHT22;62540;48.456;-4.456;2023-09-30T00:45:06;16.59;69.75
74178;DHT22;62540;48.456;-4.456;2023-09-30T00:47:35;16.59;69.70
74178;DHT22;62540;48.456;-4.456;2023-09-30T00:50:01;16.55;69.89
74178;DHT22;62540;48.456;-4.456;2023-09-30T00:52:29;16.51;69.98
74178;DHT22;62540;48.456;-4.456;2023-09-30T00:54:56;16.41;70.04
74178;DHT22;62540;48.456;-4.456;2023-09-30T00:57:22;16.36;70.09
74178;DHT22;62540;48.456;-4.456;2023-09-30T00:59:48;16.31;70.12
74178;DHT22;62540;48.456;-4.456;2023-09-30T01:02:14;16.22;70.20
74178;DHT22;62540;48.456;-4.456;2023-09-30T01:04:40;16.20;70.34
74178;DHT22;62540;48.456;-4.456;2023-09-30T01:07:06;16.18;70.32
74178;DHT22;62540;48.456;-4.456;2023-09-30T01:09:32;16.20;70.35
74178;DHT22;62540;48.456;-4.456;2023-09-30T01:11:59;16.18;70.32
74178;DHT22;62540;48.456;-4.456;2023-09-30T01:14:28;16.20;70.22
74178;DHT22;62540;48.456;-4.456;2023-09-30T01:16:54;16.18;70.27
74178;DHT22;62540;48.456;-4.456;2023-09-30T01:19:20;16.17;70.26
74178;DHT22;62540;48.456;-4.456;2023-09-30T01:21:46;16.20;70.22
74178;DHT22;62540;48.456;-4.456;2023-09-30T01:24:14;16.17;70.21
74178;DHT22;62540;48.456;-4.456;2023-09-30T01:26:40;16.12;70.25
74178;DHT22;62540;48.456;-4.456;2023-09-30T01:29:07;16.12;70.21
74178;DHT22;62540;48.456;-4.456;2023-09-30T01:31:36;16.12;70.14
74178;DHT22;62540;48.456;-4.456;2023-09-30T01:34:02;16.14;70.12
74178;DHT22;62540;48.456;-4.456;2023-09-30T01:36:27;16.14;69.97
74178;DHT22;62540;48.456;-4.456;2023-09-30T01:38:53;16.12;69.86
74178;DHT22;62540;48.456;-4.456;2023-09-30T01:41:19;16.10;69.91
74178;DHT22;62540;48.456;-4.456;2023-09-30T01:43:44;16.10;69.87
74178;DHT22;62540;48.456;-4.456;2023-09-30T01:46:10;16.08;69.76
74178;DHT22;62540;48.456;-4.456;2023-09-30T01:48:36;16.05;69.76
74178;DHT22;62540;48.456;-4.456;2023-09-30T01:51:01;16.04;69.92
74178;DHT22;62540;48.456;-4.456;2023-09-30T01:53:26;15.98;69.96
74178;DHT22;62540;48.456;-4.456;2023-09-30T01:55:52;15.96;69.94
74178;DHT22;62540;48.456;-4.456;2023-09-30T01:58:17;15.90;70.13
74178;DHT22;62540;48.456;-4.456;2023-09-30T02:00:43;15.86;70.24
74178;DHT22;62540;48.456;-4.456;2023-09-30T02:03:08;15.84;70.27
74178;DHT22;62540;48.456;-4.456;2023-09-30T02:05:33;15.83;70.41
74178;DHT22;62540;48.456;-4.456;2023-09-30T02:07:59;15.80;70.32
74178;DHT22;62540;48.456;-4.456;2023-09-30T02:10:24;15.79;70.37
74178;DHT22;62540;48.456;-4.456;2023-09-30T02:12:50;15.77;70.45
74178;DHT22;62540;48.456;-4.456;2023-09-30T02:15:15;15.74;70.61
74178;DHT22;62540;48.456;-4.456;2023-09-30T02:17:41;15.66;70.81
74178;DHT22;62540;48.456;-4.456;2023-09-30T02:20:11;15.70;70.79
74178;DHT22;62540;48.456;-4.456;2023-09-30T02:22:41;15.70;70.70
74178;DHT22;62540;48.456;-4.456;2023-09-30T02:25:07;15.67;70.77
74178;DHT22;62540;48.456;-4.456;2023-09-30T02:27:33;15.62;70.92
74178;DHT22;62540;48.456;-4.456;2023-09-30T02:29:59;15.62;70.99
74178;DHT22;62540;48.456;-4.456;2023-09-30T02:32:25;15.62;71.00
74178;DHT22;62540;48.456;-4.456;2023-09-30T02:34:50;15.59;71.04
74178;DHT22;62540;48.456;-4.456;2023-09-30T02:37:16;15.54;71.14
74178;DHT22;62540;48.456;-4.456;2023-09-30T02:39:43;15.54;71.29
74178;DHT22;62540;48.456;-4.456;2023-09-30T02:42:09;15.52;71.39
74178;DHT22;62540;48.456;-4.456;2023-09-30T02:44:35;15.46;71.66
74178;DHT22;62540;48.456;-4.456;2023-09-30T02:47:00;15.40;71.83
74178;DHT22;62540;48.456;-4.456;2023-09-30T02:49:26;15.36;71.94
74178;DHT22;62540;48.456;-4.456;2023-09-30T02:51:51;15.42;71.95
74178;DHT22;62540;48.456;-4.456;2023-09-30T02:54:16;15.43;71.93
74178;DHT22;62540;48.456;-4.456;2023-09-30T02:56:42;15.46;71.93
74178;DHT22;62540;48.456;-4.456;2023-09-30T02:59:08;15.47;71.89
74178;DHT22;62540;48.456;-4.456;2023-09-30T03:01:33;15.50;71.82
74178;DHT22;62540;48.456;-4.456;2023-09-30T03:03:59;15.53;71.75
74178;DHT22;62540;48.456;-4.456;2023-09-30T03:06:25;15.54;71.81
74178;DHT22;62540;48.456;-4.456;2023-09-30T03:08:50;15.50;71.73
74178;DHT22;62540;48.456;-4.456;2023-09-30T03:11:17;15.54;71.67
74178;DHT22;62540;48.456;-4.456;2023-09-30T03:13:45;15.52;71.69
74178;DHT22;62540;48.456;-4.456;2023-09-30T03:16:10;15.53;71.67
74178;DHT22;62540;48.456;-4.456;2023-09-30T03:18:35;15.52;71.67
74178;DHT22;62540;48.456;-4.456;2023-09-30T03:21:02;15.52;71.60
74178;DHT22;62540;48.456;-4.456;2023-09-30T03:23:33;15.53;71.52
74178;DHT22;62540;48.456;-4.456;2023-09-30T03:25:59;15.53;71.46
74178;DHT22;62540;48.456;-4.456;2023-09-30T03:28:26;15.53;71.37
74178;DHT22;62540;48.456;-4.456;2023-09-30T03:30:51;15.49;71.29
74178;DHT22;62540;48.456;-4.456;2023-09-30T03:33:17;15.49;71.38
74178;DHT22;62540;48.456;-4.456;2023-09-30T03:35:43;15.50;71.28
74178;DHT22;62540;48.456;-4.456;2023-09-30T03:38:10;15.49;71.26
74178;DHT22;62540;48.456;-4.456;2023-09-30T03:40:35;15.50;71.27
74178;DHT22;62540;48.456;-4.456;2023-09-30T03:43:03;15.49;71.33
74178;DHT22;62540;48.456;-4.456;2023-09-30T03:45:30;15.46;71.47
74178;DHT22;62540;48.456;-4.456;2023-09-30T03:47:58;15.50;71.53
74178;DHT22;62540;48.456;-4.456;2023-09-30T03:50:23;15.50;71.52
74178;DHT22;62540;48.456;-4.456;2023-09-30T03:52:49;15.46;71.64
74178;DHT22;62540;48.456;-4.456;2023-09-30T03:55:16;15.40;72.00
74178;DHT22;62540;48.456;-4.456;2023-09-30T03:57:43;15.36;72.05
74178;DHT22;62540;48.456;-4.456;2023-09-30T04:00:11;15.36;72.15
74178;DHT22;62540;48.456;-4.456;2023-09-30T04:02:44;15.31;72.27
74178;DHT22;62540;48.456;-4.456;2023-09-30T04:05:13;15.33;72.40
74178;DHT22;62540;48.456;-4.456;2023-09-30T04:07:39;15.32;72.43
74178;DHT22;62540;48.456;-4.456;2023-09-30T04:10:06;15.28;72.45
74178;DHT22;62540;48.456;-4.456;2023-09-30T04:12:31;15.31;72.57
74178;DHT22;62540;48.456;-4.456;2023-09-30T04:14:58;15.21;72.96
74178;DHT22;62540;48.456;-4.456;2023-09-30T04:17:23;15.18;72.86
74178;DHT22;62540;48.456;-4.456;2023-09-30T04:19:49;15.19;72.93
74178;DHT22;62540;48.456;-4.456;2023-09-30T04:22:17;15.16;72.98
74178;DHT22;62540;48.456;-4.456;2023-09-30T04:24:42;15.09;73.25
74178;DHT22;62540;48.456;-4.456;2023-09-30T04:27:07;15.11;73.27
74178;DHT22;62540;48.456;-4.456;2023-09-30T04:29:33;15.08;73.28
74178;DHT22;62540;48.456;-4.456;2023-09-30T04:31:59;15.06;73.34
74178;DHT22;62540;48.456;-4.456;2023-09-30T04:34:25;15.05;73.38
74178;DHT22;62540;48.456;-4.456;2023-09-30T04:36:50;15.05;73.44
74178;DHT22;62540;48.456;-4.456;2023-09-30T04:39:17;15.08;73.40
74178;DHT22;62540;48.456;-4.456;2023-09-30T04:41:43;15.12;73.30
74178;DHT22;62540;48.456;-4.456;2023-09-30T04:44:08;15.09;73.27
74178;DHT22;62540;48.456;-4.456;2023-09-30T04:46:36;15.06;73.32
74178;DHT22;62540;48.456;-4.456;2023-09-30T04:49:07;15.06;73.32
74178;DHT22;62540;48.456;-4.456;2023-09-30T04:51:32;15.05;73.35
74178;DHT22;62540;48.456;-4.456;2023-09-30T04:53:58;15.06;73.35
74178;DHT22;62540;48.456;-4.456;2023-09-30T04:56:25;15.08;73.28
74178;DHT22;62540;48.456;-4.456;2023-09-30T04:58:50;15.05;73.25
74178;DHT22;62540;48.456;-4.456;2023-09-30T05:01:15;15.04;73.36
74178;DHT22;62540;48.456;-4.456;2023-09-30T05:03:44;15.01;73.39
74178;DHT22;62540;48.456;-4.456;2023-09-30T05:06:10;15.01;73.44
74178;DHT22;62540;48.456;-4.456;2023-09-30T05:08:35;14.98;73.55
74178;DHT22;62540;48.456;-4.456;2023-09-30T05:11:01;14.94;73.89
74178;DHT22;62540;48.456;-4.456;2023-09-30T05:13:26;14.89;73.76
74178;DHT22;62540;48.456;-4.456;2023-09-30T05:15:52;14.94;73.73
74178;DHT22;62540;48.456;-4.456;2023-09-30T05:18:17;14.92;73.78
74178;DHT22;62540;48.456;-4.456;2023-09-30T05:20:43;14.85;74.13
74178;DHT22;62540;48.456;-4.456;2023-09-30T05:23:09;14.85;74.10
74178;DHT22;62540;48.456;-4.456;2023-09-30T05:25:37;14.83;74.22
74178;DHT22;62540;48.456;-4.456;2023-09-30T05:28:03;14.78;74.26
74178;DHT22;62540;48.456;-4.456;2023-09-30T05:30:29;14.78;74.18
74178;DHT22;62540;48.456;-4.456;2023-09-30T05:32:55;14.77;74.54
74178;DHT22;62540;48.456;-4.456;2023-09-30T05:35:20;14.80;74.34
74178;DHT22;62540;48.456;-4.456;2023-09-30T05:37:47;14.78;74.47
74178;DHT22;62540;48.456;-4.456;2023-09-30T05:40:13;14.80;74.49
74178;DHT22;62540;48.456;-4.456;2023-09-30T05:42:50;14.80;74.43
74178;DHT22;62540;48.456;-4.456;2023-09-30T05:45:16;14.78;74.43
74178;DHT22;62540;48.456;-4.456;2023-09-30T05:47:42;14.78;74.26
74178;DHT22;62540;48.456;-4.456;2023-09-30T05:50:09;14.81;74.16
74178;DHT22;62540;48.456;-4.456;2023-09-30T05:52:35;14.81;74.02
74178;DHT22;62540;48.456;-4.456;2023-09-30T05:55:02;14.81;74.17
74178;DHT22;62540;48.456;-4.456;2023-09-30T05:57:28;14.75;74.10
74178;DHT22;62540;48.456;-4.456;2023-09-30T05:59:54;14.78;74.16
74178;DHT22;62540;48.456;-4.456;2023-09-30T06:02:19;14.77;74.16
74178;DHT22;62540;48.456;-4.456;2023-09-30T06:04:44;14.71;74.35
74178;DHT22;62540;48.456;-4.456;2023-09-30T06:07:11;14.68;74.40
74178;DHT22;62540;48.456;-4.456;2023-09-30T06:09:37;14.67;74.62
74178;DHT22;62540;48.456;-4.456;2023-09-30T06:12:02;14.66;74.72
74178;DHT22;62540;48.456;-4.456;2023-09-30T06:14:31;14.63;74.85
74178;DHT22;62540;48.456;-4.456;2023-09-30T06:16:57;14.59;74.94
74178;DHT22;62540;48.456;-4.456;2023-09-30T06:19:22;14.63;74.91
74178;DHT22;62540;48.456;-4.456;2023-09-30T06:21:48;14.67;74.86
74178;DHT22;62540;48.456;-4.456;2023-09-30T06:24:15;14.67;75.11
74178;DHT22;62540;48.456;-4.456;2023-09-30T06:26:40;14.66;74.97
74178;DHT22;62540;48.456;-4.456;2023-09-30T06:29:06;14.70;74.94
74178;DHT22;62540;48.456;-4.456;2023-09-30T06:31:32;14.77;74.84
74178;DHT22;62540;48.456;-4.456;2023-09-30T06:33:59;14.75;74.85
74178;DHT22;62540;48.456;-4.456;2023-09-30T06:36:25;14.83;74.82
74178;DHT22;62540;48.456;-4.456;2023-09-30T06:38:51;14.89;74.73
74178;DHT22;62540;48.456;-4.456;2023-09-30T06:41:17;14.97;74.70
74178;DHT22;62540;48.456;-4.456;2023-09-30T06:43:43;14.95;74.83
74178;DHT22;62540;48.456;-4.456;2023-09-30T06:46:09;14.94;75.10
74178;DHT22;62540;48.456;-4.456;2023-09-30T06:48:37;14.94;75.23
74178;DHT22;62540;48.456;-4.456;2023-09-30T06:51:05;14.99;75.21
74178;DHT22;62540;48.456;-4.456;2023-09-30T06:53:30;15.01;75.34
74178;DHT22;62540;48.456;-4.456;2023-09-30T06:55:56;15.01;75.45
74178;DHT22;62540;48.456;-4.456;2023-09-30T06:58:21;15.04;75.38
74178;DHT22;62540;48.456;-4.456;2023-09-30T07:00:50;15.09;75.39
74178;DHT22;62540;48.456;-4.456;2023-09-30T07:03:17;15.09;75.68
74178;DHT22;62540;48.456;-4.456;2023-09-30T07:05:42;15.11;75.51
74178;DHT22;62540;48.456;-4.456;2023-09-30T07:08:09;15.18;75.41
74178;DHT22;62540;48.456;-4.456;2023-09-30T07:10:35;15.24;75.31
74178;DHT22;62540;48.456;-4.456;2023-09-30T07:13:04;15.28;75.36
74178;DHT22;62540;48.456;-4.456;2023-09-30T07:15:31;15.42;75.47
74178;DHT22;62540;48.456;-4.456;2023-09-30T07:17:57;15.63;75.13
74178;DHT22;62540;48.456;-4.456;2023-09-30T07:20:22;15.87;75.12
74178;DHT22;62540;48.456;-4.456;2023-09-30T07:22:48;16.12;74.75
74178;DHT22;62540;48.456;-4.456;2023-09-30T07:25:13;16.40;74.44
74178;DHT22;62540;48.456;-4.456;2023-09-30T07:27:45;16.70;74.00
74178;DHT22;62540;48.456;-4.456;2023-09-30T07:30:14;16.97;73.59
74178;DHT22;62540;48.456;-4.456;2023-09-30T07:32:43;17.26;73.28
74178;DHT22;62540;48.456;-4.456;2023-09-30T07:35:09;17.69;73.02
74178;DHT22;62540;48.456;-4.456;2023-09-30T07:37:35;18.27;72.18
74178;DHT22;62540;48.456;-4.456;2023-09-30T07:40:00;18.79;70.41
74178;DHT22;62540;48.456;-4.456;2023-09-30T07:42:26;19.09;70.29
74178;DHT22;62540;48.456;-4.456;2023-09-30T07:44:51;19.19;70.49
74178;DHT22;62540;48.456;-4.456;2023-09-30T07:47:17;19.60;70.21
74178;DHT22;62540;48.456;-4.456;2023-09-30T07:49:42;19.78;69.25
74178;DHT22;62540;48.456;-4.456;2023-09-30T07:52:08;19.56;69.59
74178;DHT22;62540;48.456;-4.456;2023-09-30T07:54:34;19.30;69.46
74178;DHT22;62540;48.456;-4.456;2023-09-30T07:56:59;19.11;69.99
74178;DHT22;62540;48.456;-4.456;2023-09-30T07:59:25;18.99;70.26
74178;DHT22;62540;48.456;-4.456;2023-09-30T08:01:51;19.08;70.08
74178;DHT22;62540;48.456;-4.456;2023-09-30T08:04:18;19.43;70.08
74178;DHT22;62540;48.456;-4.456;2023-09-30T08:06:43;19.81;68.53
74178;DHT22;62540;48.456;-4.456;2023-09-30T08:09:12;20.14;68.89
74178;DHT22;62540;48.456;-4.456;2023-09-30T08:11:38;20.48;68.21
74178;DHT22;62540;48.456;-4.456;2023-09-30T08:14:04;20.84;68.09
74178;DHT22;62540;48.456;-4.456;2023-09-30T08:16:35;21.12;65.04
74178;DHT22;62540;48.456;-4.456;2023-09-30T08:19:02;21.23;66.02
74178;DHT22;62540;48.456;-4.456;2023-09-30T08:21:28;21.54;65.39
74178;DHT22;62540;48.456;-4.456;2023-09-30T08:23:53;21.69;65.38
74178;DHT22;62540;48.456;-4.456;2023-09-30T08:26:19;21.82;65.23
74178;DHT22;62540;48.456;-4.456;2023-09-30T08:28:44;21.89;64.02
74178;DHT22;62540;48.456;-4.456;2023-09-30T08:31:10;22.09;64.95
74178;DHT22;62540;48.456;-4.456;2023-09-30T08:33:35;22.24;64.24
74178;DHT22;62540;48.456;-4.456;2023-09-30T08:36:05;22.45;63.57
74178;DHT22;62540;48.456;-4.456;2023-09-30T08:38:36;22.61;62.50
74178;DHT22;62540;48.456;-4.456;2023-09-30T08:41:02;22.72;61.61
74178;DHT22;62540;48.456;-4.456;2023-09-30T08:43:28;22.75;60.92
74178;DHT22;62540;48.456;-4.456;2023-09-30T08:45:56;22.71;61.61
74178;DHT22;62540;48.456;-4.456;2023-09-30T08:48:28;22.91;62.15
74178;DHT22;62540;48.456;-4.456;2023-09-30T08:50:56;23.22;61.15
74178;DHT22;62540;48.456;-4.456;2023-09-30T08:53:23;23.38;62.01
74178;DHT22;62540;48.456;-4.456;2023-09-30T08:55:52;23.71;61.93
74178;DHT22;62540;48.456;-4.456;2023-09-30T08:58:20;24.05;60.78
74178;DHT22;62540;48.456;-4.456;2023-09-30T09:00:49;24.29;60.50
74178;DHT22;62540;48.456;-4.456;2023-09-30T09:03:14;24.46;60.81
74178;DHT22;62540;48.456;-4.456;2023-09-30T09:05:40;24.49;59.31
74178;DHT22;62540;48.456;-4.456;2023-09-30T09:08:06;24.60;59.77
74178;DHT22;62540;48.456;-4.456;2023-09-30T09:10:31;24.83;60.06
74178;DHT22;62540;48.456;-4.456;2023-09-30T09:12:58;25.02;59.30
74178;DHT22;62540;48.456;-4.456;2023-09-30T09:15:27;25.16;57.74
74178;DHT22;62540;48.456;-4.456;2023-09-30T09:17:56;25.34;58.43
74178;DHT22;62540;48.456;-4.456;2023-09-30T09:20:23;25.55;57.83
74178;DHT22;62540;48.456;-4.456;2023-09-30T09:22:51;25.64;58.25
74178;DHT22;62540;48.456;-4.456;2023-09-30T09:25:19;25.48;56.32
74178;DHT22;62540;48.456;-4.456;2023-09-30T09:27:45;25.49;57.65
74178;DHT22;62540;48.456;-4.456;2023-09-30T09:30:28;25.64;55.69
74178;DHT22;62540;48.456;-4.456;2023-09-30T09:35:20;25.54;56.90
74178;DHT22;62540;48.456;-4.456;2023-09-30T09:38:00;25.57;56.35
74178;DHT22;62540;48.456;-4.456;2023-09-30T09:40:27;25.44;56.03
74178;DHT22;62540;48.456;-4.456;2023-09-30T09:42:57;25.51;57.30
74178;DHT22;62540;48.456;-4.456;2023-09-30T09:45:24;25.74;56.75
74178;DHT22;62540;48.456;-4.456;2023-09-30T09:47:51;25.62;56.63
74178;DHT22;62540;48.456;-4.456;2023-09-30T09:50:20;25.72;56.75
74178;DHT22;62540;48.456;-4.456;2023-09-30T09:52:54;25.97;56.01
74178;DHT22;62540;48.456;-4.456;2023-09-30T09:55:22;26.03;55.84
74178;DHT22;62540;48.456;-4.456;2023-09-30T09:57:48;25.99;54.70
74178;DHT22;62540;48.456;-4.456;2023-09-30T10:00:19;25.97;55.05
74178;DHT22;62540;48.456;-4.456;2023-09-30T10:02:46;26.06;55.65
74178;DHT22;62540;48.456;-4.456;2023-09-30T10:05:13;26.09;55.85
74178;DHT22;62540;48.456;-4.456;2023-09-30T10:10:17;26.02;55.86
74178;DHT22;62540;48.456;-4.456;2023-09-30T10:12:43;26.07;55.97
74178;DHT22;62540;48.456;-4.456;2023-09-30T10:17:59;26.74;55.47
74178;DHT22;62540;48.456;-4.456;2023-09-30T10:20:29;27.11;54.82
74178;DHT22;62540;48.456;-4.456;2023-09-30T10:25:44;27.42;54.35
74178;DHT22;62540;48.456;-4.456;2023-09-30T10:28:38;27.35;53.37
74178;DHT22;62540;48.456;-4.456;2023-09-30T10:31:20;27.28;54.08
74178;DHT22;62540;48.456;-4.456;2023-09-30T10:38:53;27.26;53.73
74178;DHT22;62540;48.456;-4.456;2023-09-30T10:47:00;27.09;54.18
74178;DHT22;62540;48.456;-4.456;2023-09-30T10:49:46;27.06;53.72
74178;DHT22;62540;48.456;-4.456;2023-09-30T10:52:21;27.09;54.25
74178;DHT22;62540;48.456;-4.456;2023-09-30T10:54:49;27.32;54.32
74178;DHT22;62540;48.456;-4.456;2023-09-30T10:57:28;27.33;53.21
74178;DHT22;62540;48.456;-4.456;2023-09-30T11:00:10;27.51;53.59
74178;DHT22;62540;48.456;-4.456;2023-09-30T11:02:48;27.38;53.36
74178;DHT22;62540;48.456;-4.456;2023-09-30T11:05:13;27.43;53.59
74178;DHT22;62540;48.456;-4.456;2023-09-30T11:07:40;27.30;53.76
74178;DHT22;62540;48.456;-4.456;2023-09-30T11:10:07;27.46;54.74
74178;DHT22;62540;48.456;-4.456;2023-09-30T11:12:33;27.81;54.13
74178;DHT22;62540;48.456;-4.456;2023-09-30T11:15:01;27.94;53.85
74178;DHT22;62540;48.456;-4.456;2023-09-30T11:17:26;27.87;53.87
74178;DHT22;62540;48.456;-4.456;2023-09-30T11:19:52;28.01;53.42
74178;DHT22;62540;48.456;-4.456;2023-09-30T11:22:17;27.77;53.14
74178;DHT22;62540;48.456;-4.456;2023-09-30T11:24:43;27.56;53.22
74178;DHT22;62540;48.456;-4.456;2023-09-30T11:27:11;27.20;53.81
74178;DHT22;62540;48.456;-4.456;2023-09-30T11:29:36;27.16;54.60
74178;DHT22;62540;48.456;-4.456;2023-09-30T11:32:02;26.98;54.44
74178;DHT22;62540;48.456;-4.456;2023-09-30T11:34:33;26.70;54.94
74178;DHT22;62540;48.456;-4.456;2023-09-30T11:37:00;26.64;55.93
74178;DHT22;62540;48.456;-4.456;2023-09-30T11:39:29;26.65;55.68
74178;DHT22;62540;48.456;-4.456;2023-09-30T11:41:55;26.32;56.23
74178;DHT22;62540;48.456;-4.456;2023-09-30T11:44:22;26.10;56.70
74178;DHT22;62540;48.456;-4.456;2023-09-30T11:49:31;25.62;58.02
74178;DHT22;62540;48.456;-4.456;2023-09-30T11:51:59;25.47;58.34
74178;DHT22;62540;48.456;-4.456;2023-09-30T11:54:38;25.42;59.10
74178;DHT22;62540;48.456;-4.456;2023-09-30T11:57:06;25.51;58.86
74178;DHT22;62540;48.456;-4.456;2023-09-30T11:59:35;25.39;59.19
74178;DHT22;62540;48.456;-4.456;2023-09-30T12:02:01;25.47;59.46
74178;DHT22;62540;48.456;-4.456;2023-09-30T12:04:27;25.61;59.32
74178;DHT22;62540;48.456;-4.456;2023-09-30T12:06:52;25.62;59.18
74178;DHT22;62540;48.456;-4.456;2023-09-30T12:09:18;25.61;59.20
74178;DHT22;62540;48.456;-4.456;2023-09-30T12:11:52;25.55;59.55
74178;DHT22;62540;48.456;-4.456;2023-09-30T12:14:19;25.54;59.73
74178;DHT22;62540;48.456;-4.456;2023-09-30T12:16:44;25.65;59.71
74178;DHT22;62540;48.456;-4.456;2023-09-30T12:19:11;25.72;59.62
74178;DHT22;62540;48.456;-4.456;2023-09-30T12:21:36;25.30;59.95
74178;DHT22;62540;48.456;-4.456;2023-09-30T12:24:02;25.17;60.51
74178;DHT22;62540;48.456;-4.456;2023-09-30T12:26:30;25.14;60.75
74178;DHT22;62540;48.456;-4.456;2023-09-30T12:28:56;25.06;62.02
74178;DHT22;62540;48.456;-4.456;2023-09-30T12:31:22;24.98;61.57
74178;DHT22;62540;48.456;-4.456;2023-09-30T12:33:48;25.11;61.54
74178;DHT22;62540;48.456;-4.456;2023-09-30T12:36:16;25.04;61.65
74178;DHT22;62540;48.456;-4.456;2023-09-30T12:38:42;24.94;61.47
74178;DHT22;62540;48.456;-4.456;2023-09-30T12:41:08;24.86;61.63
74178;DHT22;62540;48.456;-4.456;2023-09-30T12:43:33;24.82;61.77
74178;DHT22;62540;48.456;-4.456;2023-09-30T12:45:59;24.52;62.87
74178;DHT22;62540;48.456;-4.456;2023-09-30T12:48:25;24.38;63.49
74178;DHT22;62540;48.456;-4.456;2023-09-30T12:50:50;24.28;63.30
74178;DHT22;62540;48.456;-4.456;2023-09-30T12:53:15;24.26;63.83
74178;DHT22;62540;48.456;-4.456;2023-09-30T12:55:41;24.15;64.00
74178;DHT22;62540;48.456;-4.456;2023-09-30T12:58:06;24.24;64.25
74178;DHT22;62540;48.456;-4.456;2023-09-30T13:00:33;24.14;64.58
74178;DHT22;62540;48.456;-4.456;2023-09-30T13:03:01;24.00;64.77
74178;DHT22;62540;48.456;-4.456;2023-09-30T13:05:27;23.97;64.93
74178;DHT22;62540;48.456;-4.456;2023-09-30T13:07:55;23.94;65.12
74178;DHT22;62540;48.456;-4.456;2023-09-30T13:10:21;24.07;65.05
74178;DHT22;62540;48.456;-4.456;2023-09-30T13:12:47;24.00;65.06
74178;DHT22;62540;48.456;-4.456;2023-09-30T13:15:15;23.84;65.39
74178;DHT22;62540;48.456;-4.456;2023-09-30T13:17:40;23.97;65.19
74178;DHT22;62540;48.456;-4.456;2023-09-30T13:20:06;23.98;65.02
74178;DHT22;62540;48.456;-4.456;2023-09-30T13:22:34;23.90;65.17
74178;DHT22;62540;48.456;-4.456;2023-09-30T13:25:02;23.91;65.17
74178;DHT22;62540;48.456;-4.456;2023-09-30T13:27:28;24.02;65.12
74178;DHT22;62540;48.456;-4.456;2023-09-30T13:29:53;24.01;65.24
74178;DHT22;62540;48.456;-4.456;2023-09-30T13:32:22;24.10;65.33
74178;DHT22;62540;48.456;-4.456;2023-09-30T13:34:47;24.08;64.88
74178;DHT22;62540;48.456;-4.456;2023-09-30T13:37:13;24.17;64.94
74178;DHT22;62540;48.456;-4.456;2023-09-30T13:39:39;24.22;64.83
74178;DHT22;62540;48.456;-4.456;2023-09-30T13:42:04;24.28;64.78
74178;DHT22;62540;48.456;-4.456;2023-09-30T13:44:32;24.26;64.17
74178;DHT22;62540;48.456;-4.456;2023-09-30T13:46:57;24.35;64.31
74178;DHT22;62540;48.456;-4.456;2023-09-30T13:49:23;24.48;63.68
74178;DHT22;62540;48.456;-4.456;2023-09-30T13:51:48;24.63;63.89
74178;DHT22;62540;48.456;-4.456;2023-09-30T13:54:13;24.69;63.11
74178;DHT22;62540;48.456;-4.456;2023-09-30T13:56:40;24.58;63.31
74178;DHT22;62540;48.456;-4.456;2023-09-30T13:59:05;24.45;63.20
74178;DHT22;62540;48.456;-4.456;2023-09-30T14:01:31;24.51;63.52
74178;DHT22;62540;48.456;-4.456;2023-09-30T14:03:56;24.48;63.45
74178;DHT22;62540;48.456;-4.456;2023-09-30T14:06:23;24.45;63.64
74178;DHT22;62540;48.456;-4.456;2023-09-30T14:08:48;24.48;63.85
74178;DHT22;62540;48.456;-4.456;2023-09-30T14:11:14;24.59;63.98
74178;DHT22;62540;48.456;-4.456;2023-09-30T14:13:40;24.70;63.60
74178;DHT22;62540;48.456;-4.456;2023-09-30T14:16:05;24.59;64.04
74178;DHT22;62540;48.456;-4.456;2023-09-30T14:18:32;24.62;63.84
74178;DHT22;62540;48.456;-4.456;2023-09-30T14:20:58;24.62;63.66
74178;DHT22;62540;48.456;-4.456;2023-09-30T14:23:24;24.56;63.73
74178;DHT22;62540;48.456;-4.456;2023-09-30T14:25:49;24.51;63.71
74178;DHT22;62540;48.456;-4.456;2023-09-30T14:28:15;24.49;63.96
74178;DHT22;62540;48.456;-4.456;2023-09-30T14:30:40;24.36;64.00
74178;DHT22;62540;48.456;-4.456;2023-09-30T14:33:06;24.10;64.42
74178;DHT22;62540;48.456;-4.456;2023-09-30T14:35:34;24.00;64.65
74178;DHT22;62540;48.456;-4.456;2023-09-30T14:38:02;23.90;64.91
74178;DHT22;62540;48.456;-4.456;2023-09-30T14:40:27;23.77;65.32
74178;DHT22;62540;48.456;-4.456;2023-09-30T14:42:53;23.73;65.63
74178;DHT22;62540;48.456;-4.456;2023-09-30T14:45:18;23.69;65.94
74178;DHT22;62540;48.456;-4.456;2023-09-30T14:47:43;23.66;66.09
74178;DHT22;62540;48.456;-4.456;2023-09-30T14:50:09;23.63;66.36
74178;DHT22;62540;48.456;-4.456;2023-09-30T14:52:34;23.69;66.24
74178;DHT22;62540;48.456;-4.456;2023-09-30T14:54:59;23.80;66.21
74178;DHT22;62540;48.456;-4.456;2023-09-30T14:57:25;23.81;66.10
74178;DHT22;62540;48.456;-4.456;2023-09-30T14:59:50;23.87;65.97
74178;DHT22;62540;48.456;-4.456;2023-09-30T15:02:16;23.93;66.00
74178;DHT22;62540;48.456;-4.456;2023-09-30T15:04:42;23.98;65.91
74178;DHT22;62540;48.456;-4.456;2023-09-30T15:07:08;23.82;66.29
74178;DHT22;62540;48.456;-4.456;2023-09-30T15:09:33;23.77;66.67
74178;DHT22;62540;48.456;-4.456;2023-09-30T15:11:58;23.75;66.73
74178;DHT22;62540;48.456;-4.456;2023-09-30T15:14:24;23.81;66.61
74178;DHT22;62540;48.456;-4.456;2023-09-30T15:16:49;23.77;67.08
74178;DHT22;62540;48.456;-4.456;2023-09-30T15:19:15;23.82;66.88
74178;DHT22;62540;48.456;-4.456;2023-09-30T15:21:40;23.78;66.67
74178;DHT22;62540;48.456;-4.456;2023-09-30T15:24:06;23.74;67.29
74178;DHT22;62540;48.456;-4.456;2023-09-30T15:26:32;23.67;67.11
74178;DHT22;62540;48.456;-4.456;2023-09-30T15:28:58;23.63;67.29
74178;DHT22;62540;48.456;-4.456;2023-09-30T15:31:30;23.54;67.74
74178;DHT22;62540;48.456;-4.456;2023-09-30T15:33:56;23.52;67.90
74178;DHT22;62540;48.456;-4.456;2023-09-30T15:36:22;23.53;68.39